sensor_id;sensor_type;location;lat;lon;timestamp;P1;durP1;ratioP1;P2;durP2;ratioP2
11865;SDS011;5992;52.744;6.898;2023-04-24T00:01:38;0.50;;;0.50;;
11865;SDS011;5992;52.744;6.898;2023-04-24T00:05:02;0.50;;;0.50;;
11865;SDS011;5992;52.744;6.898;2023-04-24T00:08:15;0.80;;;0.80;;
11865;SDS011;5992;52.744;6.898;2023-04-24T00:11:39;0.73;;;0.73;;
11865;SDS011;5992;52.744;6.898;2023-04-24T00:14:40;1.05;;;0.95;;
11865;SDS011;5992;52.744;6.898;2023-04-24T00:17:53;0.60;;;0.60;;
11865;SDS011;5992;52.744;6.898;2023-04-24T00:20:54;0.90;;;0.90;;
11865;SDS011;5992;52.744;6.898;2023-04-24T00:24:21;0.70;;;0.70;;
11865;SDS011;5992;52.744;6.898;2023-04-24T00:27:33;0.50;;;0.50;;
11865;SDS011;5992;52.744;6.898;2023-04-24T00:30:46;0.90;;;0.90;;
11865;SDS011;5992;52.744;6.898;2023-04-24T00:33:47;0.40;;;0.40;;
11865;SDS011;5992;52.744;6.898;2023-04-24T00:36:59;0.60;;;0.60;;
11865;SDS011;5992;52.744;6.898;2023-04-24T00:40:01;0.60;;;0.60;;
11865;SDS011;5992;52.744;6.898;2023-04-24T00:43:28;0.60;;;0.60;;
11865;SDS011;5992;52.744;6.898;2023-04-24T00:46:41;0.40;;;0.40;;
11865;SDS011;5992;52.744;6.898;2023-04-24T00:50:07;2.90;;;0.75;;
11865;SDS011;5992;52.744;6.898;2023-04-24T00:53:31;1.50;;;0.47;;
11865;SDS011;5992;52.744;6.898;2023-04-24T00:56:57;0.40;;;0.40;;
11865;SDS011;5992;52.744;6.898;2023-04-24T01:00:10;0.60;;;0.60;;
11865;SDS011;5992;52.744;6.898;2023-04-24T01:03:35;0.50;;;0.50;;
11865;SDS011;5992;52.744;6.898;2023-04-24T01:06:38;0.65;;;0.65;;
11865;SDS011;5992;52.744;6.898;2023-04-24T01:10:01;0.55;;;0.55;;
11865;SDS011;5992;52.744;6.898;2023-04-24T01:13:15;1.25;;;0.70;;
11865;SDS011;5992;52.744;6.898;2023-04-24T01:16:39;0.95;;;0.70;;
11865;SDS011;5992;52.744;6.898;2023-04-24T01:19:51;0.60;;;0.60;;
11865;SDS011;5992;52.744;6.898;2023-04-24T01:23:17;0.80;;;0.80;;
11865;SDS011;5992;52.744;6.898;2023-04-24T01:26:28;0.60;;;0.60;;
11865;SDS011;5992;52.744;6.898;2023-04-24T01:29:41;0.80;;;0.80;;
11865;SDS011;5992;52.744;6.898;2023-04-24T01:32:53;1.17;;;1.17;;
11865;SDS011;5992;52.744;6.898;2023-04-24T01:36:18;1.30;;;1.30;;
11865;SDS011;5992;52.744;6.898;2023-04-24T01:39:36;1.20;;;1.20;;
11865;SDS011;5992;52.744;6.898;2023-04-24T01:43:03;1.20;;;1.20;;
11865;SDS011;5992;52.744;6.898;2023-04-24T01:46:15;1.30;;;1.30;;
11865;SDS011;5992;52.744;6.898;2023-04-24T01:49:39;1.40;;;1.30;;
11865;SDS011;5992;52.744;6.898;2023-04-24T01:52:41;1.85;;;1.75;;
11865;SDS011;5992;52.744;6.898;2023-04-24T01:56:07;2.00;;;1.90;;
11865;SDS011;5992;52.744;6.898;2023-04-24T01:59:31;1.90;;;1.80;;
11865;SDS011;5992;52.744;6.898;2023-04-24T02:02:47;1.90;;;1.80;;
11865;SDS011;5992;52.744;6.898;2023-04-24T02:06:00;1.65;;;1.60;;
11865;SDS011;5992;52.744;6.898;2023-04-24T02:09:02;1.93;;;1.83;;
11865;SDS011;5992;52.744;6.898;2023-04-24T02:12:27;1.70;;;1.60;;
11865;SDS011;5992;52.744;6.898;2023-04-24T02:15:51;2.10;;;2.00;;
11865;SDS011;5992;52.744;6.898;2023-04-24T02:18:52;2.77;;;1.63;;
11865;SDS011;5992;52.744;6.898;2023-04-24T02:22:05;2.90;;;2.00;;
11865;SDS011;5992;52.744;6.898;2023-04-24T02:25:22;3.65;;;1.60;;
11865;SDS011;5992;52.744;6.898;2023-04-24T02:28:48;2.00;;;1.90;;
11865;SDS011;5992;52.744;6.898;2023-04-24T02:32:00;2.10;;;2.00;;
11865;SDS011;5992;52.744;6.898;2023-04-24T02:35:24;2.10;;;2.00;;
11865;SDS011;5992;52.744;6.898;2023-04-24T02:38:25;2.57;;;2.43;;
11865;SDS011;5992;52.744;6.898;2023-04-24T02:41:50;1.90;;;1.80;;
11865;SDS011;5992;52.744;6.898;2023-04-24T02:44:52;1.55;;;1.45;;
11865;SDS011;5992;52.744;6.898;2023-04-24T02:48:17;1.75;;;1.70;;
11865;SDS011;5992;52.744;6.898;2023-04-24T02:51:29;1.60;;;1.50;;
11865;SDS011;5992;52.744;6.898;2023-04-24T02:54:54;1.40;;;1.40;;
11865;SDS011;5992;52.744;6.898;2023-04-24T02:57:55;1.70;;;1.60;;
11865;SDS011;5992;52.744;6.898;2023-04-24T03:01:21;1.70;;;1.60;;
11865;SDS011;5992;52.744;6.898;2023-04-24T03:04:46;1.80;;;1.70;;
11865;SDS011;5992;52.744;6.898;2023-04-24T03:08:10;1.70;;;1.60;;
11865;SDS011;5992;52.744;6.898;2023-04-24T03:11:26;1.40;;;1.40;;
11865;SDS011;5992;52.744;6.898;2023-04-24T03:14:50;1.80;;;1.70;;
11865;SDS011;5992;52.744;6.898;2023-04-24T03:17:52;1.40;;;1.40;;
11865;SDS011;5992;52.744;6.898;2023-04-24T03:21:17;1.70;;;1.60;;
11865;SDS011;5992;52.744;6.898;2023-04-24T03:24:30;1.55;;;1.35;;
11865;SDS011;5992;52.744;6.898;2023-04-24T03:27:44;1.60;;;1.50;;
11865;SDS011;5992;52.744;6.898;2023-04-24T03:30:57;1.70;;;1.60;;
11865;SDS011;5992;52.744;6.898;2023-04-24T03:34:22;1.70;;;1.60;;
11865;SDS011;5992;52.744;6.898;2023-04-24T03:37:47;1.65;;;1.65;;
11865;SDS011;5992;52.744;6.898;2023-04-24T03:41:11;1.47;;;1.37;;
11865;SDS011;5992;52.744;6.898;2023-04-24T03:44:24;1.53;;;1.53;;
11865;SDS011;5992;52.744;6.898;2023-04-24T03:47:37;2.05;;;1.30;;
11865;SDS011;5992;52.744;6.898;2023-04-24T03:50:51;1.70;;;1.60;;
11865;SDS011;5992;52.744;6.898;2023-04-24T03:54:17;1.60;;;1.50;;
11865;SDS011;5992;52.744;6.898;2023-04-24T03:57:30;1.80;;;1.70;;
11865;SDS011;5992;52.744;6.898;2023-04-24T04:00:43;1.80;;;1.70;;
11865;SDS011;5992;52.744;6.898;2023-04-24T04:03:57;1.55;;;1.45;;
11865;SDS011;5992;52.744;6.898;2023-04-24T04:07:11;1.50;;;1.40;;
11865;SDS011;5992;52.744;6.898;2023-04-24T04:10:36;1.43;;;1.43;;
11865;SDS011;5992;52.744;6.898;2023-04-24T04:13:49;1.80;;;1.70;;
11865;SDS011;5992;52.744;6.898;2023-04-24T04:17:13;1.90;;;1.80;;
11865;SDS011;5992;52.744;6.898;2023-04-24T04:20:37;2.03;;;1.93;;
11865;SDS011;5992;52.744;6.898;2023-04-24T04:23:51;2.10;;;1.90;;
11865;SDS011;5992;52.744;6.898;2023-04-24T04:27:15;2.05;;;1.95;;
11865;SDS011;5992;52.744;6.898;2023-04-24T04:30:28;2.35;;;2.20;;
11865;SDS011;5992;52.744;6.898;2023-04-24T04:33:41;2.20;;;1.95;;
11865;SDS011;5992;52.744;6.898;2023-04-24T04:36:54;2.05;;;1.95;;
11865;SDS011;5992;52.744;6.898;2023-04-24T04:40:10;2.53;;;2.03;;
11865;SDS011;5992;52.744;6.898;2023-04-24T04:43:35;2.20;;;2.00;;
11865;SDS011;5992;52.744;6.898;2023-04-24T04:46:47;2.00;;;1.90;;
11865;SDS011;5992;52.744;6.898;2023-04-24T04:50:11;2.10;;;1.85;;
11865;SDS011;5992;52.744;6.898;2023-04-24T04:53:35;2.45;;;2.25;;
11865;SDS011;5992;52.744;6.898;2023-04-24T04:56:51;2.43;;;2.27;;
11865;SDS011;5992;52.744;6.898;2023-04-24T05:00:15;2.50;;;1.75;;
11865;SDS011;5992;52.744;6.898;2023-04-24T05:03:29;2.10;;;2.00;;
11865;SDS011;5992;52.744;6.898;2023-04-24T05:06:42;2.80;;;2.10;;
11865;SDS011;5992;52.744;6.898;2023-04-24T05:10:07;2.23;;;2.10;;
11865;SDS011;5992;52.744;6.898;2023-04-24T05:13:33;2.40;;;2.20;;
11865;SDS011;5992;52.744;6.898;2023-04-24T05:16:58;2.20;;;2.10;;
11865;SDS011;5992;52.744;6.898;2023-04-24T05:20:22;2.30;;;2.20;;
11865;SDS011;5992;52.744;6.898;2023-04-24T05:23:46;2.00;;;1.90;;
11865;SDS011;5992;52.744;6.898;2023-04-24T05:26:59;2.00;;;1.90;;
11865;SDS011;5992;52.744;6.898;2023-04-24T05:30:25;1.80;;;1.70;;
11865;SDS011;5992;52.744;6.898;2023-04-24T05:33:49;1.50;;;1.50;;
11865;SDS011;5992;52.744;6.898;2023-04-24T05:37:03;1.55;;;1.55;;
11865;SDS011;5992;52.744;6.898;2023-04-24T05:40:16;1.53;;;1.43;;
11865;SDS011;5992;52.744;6.898;2023-04-24T05:43:29;1.30;;;1.30;;
11865;SDS011;5992;52.744;6.898;2023-04-24T05:46:32;1.23;;;1.23;;
11865;SDS011;5992;52.744;6.898;2023-04-24T05:49:57;1.65;;;1.55;;
11865;SDS011;5992;52.744;6.898;2023-04-24T05:53:22;1.60;;;1.50;;
11865;SDS011;5992;52.744;6.898;2023-04-24T05:56:35;1.80;;;1.70;;
11865;SDS011;5992;52.744;6.898;2023-04-24T05:59:59;1.30;;;1.30;;
11865;SDS011;5992;52.744;6.898;2023-04-24T06:03:15;1.10;;;1.10;;
11865;SDS011;5992;52.744;6.898;2023-04-24T06:06:27;1.55;;;1.45;;
11865;SDS011;5992;52.744;6.898;2023-04-24T06:09:52;1.63;;;1.63;;
11865;SDS011;5992;52.744;6.898;2023-04-24T06:13:16;1.20;;;1.20;;
11865;SDS011;5992;52.744;6.898;2023-04-24T06:16:29;1.20;;;1.20;;
11865;SDS011;5992;52.744;6.898;2023-04-24T06:19:56;1.00;;;1.00;;
11865;SDS011;5992;52.744;6.898;2023-04-24T06:23:20;0.97;;;0.97;;
11865;SDS011;5992;52.744;6.898;2023-04-24T06:26:33;0.95;;;0.95;;
11865;SDS011;5992;52.744;6.898;2023-04-24T06:29:46;0.90;;;0.90;;
11865;SDS011;5992;52.744;6.898;2023-04-24T06:32:48;0.70;;;0.70;;
11865;SDS011;5992;52.744;6.898;2023-04-24T06:36:03;1.00;;;0.90;;
11865;SDS011;5992;52.744;6.898;2023-04-24T06:39:15;1.50;;;0.90;;
11865;SDS011;5992;52.744;6.898;2023-04-24T06:42:28;0.80;;;0.80;;
11865;SDS011;5992;52.744;6.898;2023-04-24T06:45:29;1.03;;;1.00;;
11865;SDS011;5992;52.744;6.898;2023-04-24T06:48:43;0.93;;;0.90;;
11865;SDS011;5992;52.744;6.898;2023-04-24T06:51:57;1.50;;;1.30;;
11865;SDS011;5992;52.744;6.898;2023-04-24T06:55:21;1.23;;;1.20;;
11865;SDS011;5992;52.744;6.898;2023-04-24T06:58:23;1.30;;;1.17;;
11865;SDS011;5992;52.744;6.898;2023-04-24T07:01:46;1.15;;;1.15;;
11865;SDS011;5992;52.744;6.898;2023-04-24T07:04:58;1.50;;;1.40;;
11865;SDS011;5992;52.744;6.898;2023-04-24T07:08:13;2.00;;;1.90;;
11865;SDS011;5992;52.744;6.898;2023-04-24T07:11:25;1.65;;;1.55;;
11865;SDS011;5992;52.744;6.898;2023-04-24T07:14:39;1.60;;;1.45;;
11865;SDS011;5992;52.744;6.898;2023-04-24T07:17:51;1.35;;;1.30;;
11865;SDS011;5992;52.744;6.898;2023-04-24T07:21:15;1.93;;;1.50;;
11865;SDS011;5992;52.744;6.898;2023-04-24T07:24:18;1.50;;;1.40;;
11865;SDS011;5992;52.744;6.898;2023-04-24T07:27:43;1.40;;;1.30;;
11865;SDS011;5992;52.744;6.898;2023-04-24T07:30:44;1.70;;;1.50;;
11865;SDS011;5992;52.744;6.898;2023-04-24T07:33:58;1.20;;;1.20;;
11865;SDS011;5992;52.744;6.898;2023-04-24T07:36:59;1.05;;;1.05;;
11865;SDS011;5992;52.744;6.898;2023-04-24T07:40:26;0.80;;;0.80;;
11865;SDS011;5992;52.744;6.898;2023-04-24T07:43:38;0.77;;;0.77;;
11865;SDS011;5992;52.744;6.898;2023-04-24T07:46:52;1.10;;;1.03;;
11865;SDS011;5992;52.744;6.898;2023-04-24T07:50:05;1.65;;;1.15;;
11865;SDS011;5992;52.744;6.898;2023-04-24T07:53:29;0.90;;;0.90;;
11865;SDS011;5992;52.744;6.898;2023-04-24T07:56:32;1.15;;;0.90;;
11865;SDS011;5992;52.744;6.898;2023-04-24T07:59:56;1.20;;;1.20;;
11865;SDS011;5992;52.744;6.898;2023-04-24T08:03:10;1.40;;;1.30;;
11865;SDS011;5992;52.744;6.898;2023-04-24T08:06:12;0.83;;;0.83;;
11865;SDS011;5992;52.744;6.898;2023-04-24T08:09:26;1.00;;;1.00;;
11865;SDS011;5992;52.744;6.898;2023-04-24T08:12:29;1.10;;;1.00;;
11865;SDS011;5992;52.744;6.898;2023-04-24T08:15:53;1.20;;;1.20;;
11865;SDS011;5992;52.744;6.898;2023-04-24T08:19:05;1.45;;;1.00;;
11865;SDS011;5992;52.744;6.898;2023-04-24T08:22:33;1.13;;;0.83;;
11865;SDS011;5992;52.744;6.898;2023-04-24T08:25:34;1.87;;;1.10;;
11865;SDS011;5992;52.744;6.898;2023-04-24T08:28:59;1.07;;;1.00;;
11865;SDS011;5992;52.744;6.898;2023-04-24T08:32:12;0.83;;;0.83;;
11865;SDS011;5992;52.744;6.898;2023-04-24T08:35:25;0.80;;;0.80;;
11865;SDS011;5992;52.744;6.898;2023-04-24T08:38:26;0.90;;;0.90;;
11865;SDS011;5992;52.744;6.898;2023-04-24T08:41:53;2.90;;;1.00;;
11865;SDS011;5992;52.744;6.898;2023-04-24T08:45:08;1.13;;;0.80;;
11865;SDS011;5992;52.744;6.898;2023-04-24T08:48:32;1.60;;;0.67;;
11865;SDS011;5992;52.744;6.898;2023-04-24T08:51:44;0.97;;;0.97;;
11865;SDS011;5992;52.744;6.898;2023-04-24T08:55:09;0.73;;;0.67;;
11865;SDS011;5992;52.744;6.898;2023-04-24T08:58:21;0.70;;;0.70;;
11865;SDS011;5992;52.744;6.898;2023-04-24T09:01:47;1.20;;;1.10;;
11865;SDS011;5992;52.744;6.898;2023-04-24T09:04:59;1.10;;;1.10;;
11865;SDS011;5992;52.744;6.898;2023-04-24T09:08:24;1.80;;;1.60;;
11865;SDS011;5992;52.744;6.898;2023-04-24T09:11:36;2.50;;;2.10;;
11865;SDS011;5992;52.744;6.898;2023-04-24T09:15:01;5.80;;;2.60;;
11865;SDS011;5992;52.744;6.898;2023-04-24T09:18:14;4.20;;;3.35;;
11865;SDS011;5992;52.744;6.898;2023-04-24T09:21:40;2.95;;;2.40;;
11865;SDS011;5992;52.744;6.898;2023-04-24T09:24:41;2.73;;;2.53;;
11865;SDS011;5992;52.744;6.898;2023-04-24T09:28:05;3.45;;;2.75;;
11865;SDS011;5992;52.744;6.898;2023-04-24T09:31:07;4.57;;;2.80;;
11865;SDS011;5992;52.744;6.898;2023-04-24T09:34:31;3.53;;;3.23;;
11865;SDS011;5992;52.744;6.898;2023-04-24T09:37:45;4.40;;;3.05;;
11865;SDS011;5992;52.744;6.898;2023-04-24T09:41:12;5.40;;;3.25;;
11865;SDS011;5992;52.744;6.898;2023-04-24T09:44:22;4.50;;;3.67;;
11865;SDS011;5992;52.744;6.898;2023-04-24T09:47:45;4.03;;;3.63;;
11865;SDS011;5992;52.744;6.898;2023-04-24T09:51:00;7.35;;;4.50;;
11865;SDS011;5992;52.744;6.898;2023-04-24T09:54:24;8.40;;;5.40;;
11865;SDS011;5992;52.744;6.898;2023-04-24T09:57:25;7.83;;;5.10;;
11865;SDS011;5992;52.744;6.898;2023-04-24T10:00:38;12.80;;;6.35;;
11865;SDS011;5992;52.744;6.898;2023-04-24T10:03:51;8.55;;;5.80;;
11865;SDS011;5992;52.744;6.898;2023-04-24T10:07:04;8.73;;;5.47;;
11865;SDS011;5992;52.744;6.898;2023-04-24T10:10:29;7.45;;;5.45;;
11865;SDS011;5992;52.744;6.898;2023-04-24T10:13:41;8.85;;;6.10;;
11865;SDS011;5992;52.744;6.898;2023-04-24T10:17:06;7.95;;;4.90;;
11865;SDS011;5992;52.744;6.898;2023-04-24T10:20:21;6.15;;;5.55;;
11865;SDS011;5992;52.744;6.898;2023-04-24T10:23:46;5.33;;;4.83;;
11865;SDS011;5992;52.744;6.898;2023-04-24T10:27:00;5.03;;;4.43;;
11865;SDS011;5992;52.744;6.898;2023-04-24T10:30:25;6.95;;;4.90;;
11865;SDS011;5992;52.744;6.898;2023-04-24T10:33:37;5.20;;;4.70;;
11865;SDS011;5992;52.744;6.898;2023-04-24T10:37:02;6.80;;;4.80;;
11865;SDS011;5992;52.744;6.898;2023-04-24T10:40:17;5.07;;;4.50;;
11865;SDS011;5992;52.744;6.898;2023-04-24T10:43:42;6.20;;;4.40;;
11865;SDS011;5992;52.744;6.898;2023-04-24T10:46:54;9.77;;;4.90;;
11865;SDS011;5992;52.744;6.898;2023-04-24T10:50:18;7.70;;;4.33;;
11865;SDS011;5992;52.744;6.898;2023-04-24T10:53:30;7.65;;;4.10;;
11865;SDS011;5992;52.744;6.898;2023-04-24T11:00:41;5.05;;;3.50;;
11865;SDS011;5992;52.744;6.898;2023-04-24T11:04:06;5.17;;;3.13;;
11865;SDS011;5992;52.744;6.898;2023-04-24T11:07:07;6.20;;;3.50;;
11865;SDS011;5992;52.744;6.898;2023-04-24T11:10:32;4.77;;;3.20;;
11865;SDS011;5992;52.744;6.898;2023-04-24T11:17:30;6.15;;;2.95;;
11865;SDS011;5992;52.744;6.898;2023-04-24T11:20:42;3.40;;;2.30;;
11865;SDS011;5992;52.744;6.898;2023-04-24T11:24:22;4.97;;;2.33;;
11865;SDS011;5992;52.744;6.898;2023-04-24T11:27:46;4.35;;;2.20;;
11865;SDS011;5992;52.744;6.898;2023-04-24T11:31:01;5.07;;;2.03;;
11865;SDS011;5992;52.744;6.898;2023-04-24T11:34:13;3.07;;;2.10;;
11865;SDS011;5992;52.744;6.898;2023-04-24T11:37:38;4.70;;;2.40;;
11865;SDS011;5992;52.744;6.898;2023-04-24T11:40:49;5.63;;;2.40;;
11865;SDS011;5992;52.744;6.898;2023-04-24T11:44:13;3.73;;;2.30;;
11865;SDS011;5992;52.744;6.898;2023-04-24T11:47:30;5.80;;;2.20;;
11865;SDS011;5992;52.744;6.898;2023-04-24T11:50:54;1.83;;;1.50;;
11865;SDS011;5992;52.744;6.898;2023-04-24T11:54:07;4.00;;;1.95;;
11865;SDS011;5992;52.744;6.898;2023-04-24T11:57:31;2.55;;;1.50;;
11865;SDS011;5992;52.744;6.898;2023-04-24T12:00:43;2.87;;;1.40;;
11865;SDS011;5992;52.744;6.898;2023-04-24T12:04:00;2.53;;;1.40;;
11865;SDS011;5992;52.744;6.898;2023-04-24T12:07:12;5.10;;;1.70;;
11865;SDS011;5992;52.744;6.898;2023-04-24T12:10:26;3.50;;;2.03;;
11865;SDS011;5992;52.744;6.898;2023-04-24T12:13:37;2.27;;;1.60;;
11865;SDS011;5992;52.744;6.898;2023-04-24T12:17:01;4.70;;;2.40;;
11865;SDS011;5992;52.744;6.898;2023-04-24T12:20:15;3.05;;;1.40;;
11865;SDS011;5992;52.744;6.898;2023-04-24T12:23:38;6.55;;;1.80;;
11865;SDS011;5992;52.744;6.898;2023-04-24T12:26:50;4.25;;;1.50;;
11865;SDS011;5992;52.744;6.898;2023-04-24T12:30:05;3.03;;;1.63;;
11865;SDS011;5992;52.744;6.898;2023-04-24T12:33:17;4.47;;;1.47;;
11865;SDS011;5992;52.744;6.898;2023-04-24T12:36:43;2.15;;;1.45;;
11865;SDS011;5992;52.744;6.898;2023-04-24T12:39:59;2.10;;;1.40;;
11865;SDS011;5992;52.744;6.898;2023-04-24T12:43:22;2.93;;;1.37;;
11865;SDS011;5992;52.744;6.898;2023-04-24T12:46:23;3.00;;;1.45;;
11865;SDS011;5992;52.744;6.898;2023-04-24T12:49:36;3.47;;;1.37;;
11865;SDS011;5992;52.744;6.898;2023-04-24T12:52:39;5.75;;;2.90;;
11865;SDS011;5992;52.744;6.898;2023-04-24T12:56:04;2.25;;;1.10;;
11865;SDS011;5992;52.744;6.898;2023-04-24T12:59:04;5.70;;;1.80;;
11865;SDS011;5992;52.744;6.898;2023-04-24T13:02:18;1.10;;;1.00;;
11865;SDS011;5992;52.744;6.898;2023-04-24T13:05:19;3.45;;;1.40;;
11865;SDS011;5992;52.744;6.898;2023-04-24T13:08:34;6.03;;;1.27;;
11865;SDS011;5992;52.744;6.898;2023-04-24T13:11:46;2.00;;;1.10;;
11865;SDS011;5992;52.744;6.898;2023-04-24T13:15:00;3.65;;;1.05;;
11865;SDS011;5992;52.744;6.898;2023-04-24T13:18:11;5.30;;;1.05;;
11865;SDS011;5992;52.744;6.898;2023-04-24T13:21:25;3.03;;;0.93;;
11865;SDS011;5992;52.744;6.898;2023-04-24T13:24:28;1.15;;;0.70;;
11865;SDS011;5992;52.744;6.898;2023-04-24T13:27:53;1.40;;;0.70;;
11865;SDS011;5992;52.744;6.898;2023-04-24T13:30:53;1.10;;;0.57;;
11865;SDS011;5992;52.744;6.898;2023-04-24T13:34:17;2.63;;;1.00;;
11865;SDS011;5992;52.744;6.898;2023-04-24T13:37:29;2.90;;;0.90;;
11865;SDS011;5992;52.744;6.898;2023-04-24T13:40:43;1.45;;;0.60;;
11865;SDS011;5992;52.744;6.898;2023-04-24T13:43:56;0.80;;;0.80;;
11865;SDS011;5992;52.744;6.898;2023-04-24T13:47:09;1.93;;;0.90;;
11865;SDS011;5992;52.744;6.898;2023-04-24T13:50:22;4.13;;;1.10;;
11865;SDS011;5992;52.744;6.898;2023-04-24T13:53:35;2.55;;;1.15;;
11865;SDS011;5992;52.744;6.898;2023-04-24T13:56:48;2.85;;;0.70;;
11865;SDS011;5992;52.744;6.898;2023-04-24T14:00:13;4.15;;;1.25;;
11865;SDS011;5992;52.744;6.898;2023-04-24T14:03:26;5.10;;;1.03;;
11865;SDS011;5992;52.744;6.898;2023-04-24T14:06:27;5.00;;;0.90;;
11865;SDS011;5992;52.744;6.898;2023-04-24T14:09:40;2.30;;;1.20;;
11865;SDS011;5992;52.744;6.898;2023-04-24T14:12:53;1.90;;;1.35;;
11865;SDS011;5992;52.744;6.898;2023-04-24T14:16:18;2.60;;;1.10;;
11865;SDS011;5992;52.744;6.898;2023-04-24T14:19:19;0.95;;;0.65;;
11865;SDS011;5992;52.744;6.898;2023-04-24T14:22:33;3.43;;;1.03;;
11865;SDS011;5992;52.744;6.898;2023-04-24T14:25:34;1.03;;;0.87;;
11865;SDS011;5992;52.744;6.898;2023-04-24T14:29:02;2.43;;;1.03;;
11865;SDS011;5992;52.744;6.898;2023-04-24T14:32:14;1.30;;;0.60;;
11865;SDS011;5992;52.744;6.898;2023-04-24T14:35:27;1.75;;;0.70;;
11865;SDS011;5992;52.744;6.898;2023-04-24T14:38:28;3.10;;;0.95;;
11865;SDS011;5992;52.744;6.898;2023-04-24T14:41:55;4.63;;;1.43;;
11865;SDS011;5992;52.744;6.898;2023-04-24T14:44:57;2.37;;;1.13;;
11865;SDS011;5992;52.744;6.898;2023-04-24T14:48:23;1.23;;;0.67;;
11865;SDS011;5992;52.744;6.898;2023-04-24T14:51:35;4.37;;;1.10;;
11865;SDS011;5992;52.744;6.898;2023-04-24T14:55:00;3.43;;;1.50;;
11865;SDS011;5992;52.744;6.898;2023-04-24T14:58:01;1.87;;;1.37;;
11865;SDS011;5992;52.744;6.898;2023-04-24T15:01:27;2.60;;;0.95;;
11865;SDS011;5992;52.744;6.898;2023-04-24T15:04:40;4.27;;;1.00;;
11865;SDS011;5992;52.744;6.898;2023-04-24T15:07:53;1.63;;;0.80;;
11865;SDS011;5992;52.744;6.898;2023-04-24T15:10:54;1.33;;;1.23;;
11865;SDS011;5992;52.744;6.898;2023-04-24T15:14:19;6.85;;;1.65;;
11865;SDS011;5992;52.744;6.898;2023-04-24T15:17:21;5.45;;;1.55;;
11865;SDS011;5992;52.744;6.898;2023-04-24T15:20:46;3.90;;;1.45;;
11865;SDS011;5992;52.744;6.898;2023-04-24T15:23:47;2.75;;;1.30;;
11865;SDS011;5992;52.744;6.898;2023-04-24T15:27:01;3.63;;;1.57;;
11865;SDS011;5992;52.744;6.898;2023-04-24T15:30:02;5.57;;;1.40;;
11865;SDS011;5992;52.744;6.898;2023-04-24T15:33:16;4.00;;;1.37;;
11865;SDS011;5992;52.744;6.898;2023-04-24T15:36:29;4.70;;;1.40;;
11865;SDS011;5992;52.744;6.898;2023-04-24T15:39:55;3.80;;;1.60;;
11865;SDS011;5992;52.744;6.898;2023-04-24T15:42:56;4.85;;;1.50;;
11865;SDS011;5992;52.744;6.898;2023-04-24T15:46:09;6.45;;;1.40;;
11865;SDS011;5992;52.744;6.898;2023-04-24T15:49:22;4.47;;;1.33;;
11865;SDS011;5992;52.744;6.898;2023-04-24T15:52:47;6.43;;;1.70;;
11865;SDS011;5992;52.744;6.898;2023-04-24T15:55:48;5.63;;;2.30;;
11865;SDS011;5992;52.744;6.898;2023-04-24T15:59:12;7.10;;;1.77;;
11865;SDS011;5992;52.744;6.898;2023-04-24T16:02:13;4.10;;;1.50;;
11865;SDS011;5992;52.744;6.898;2023-04-24T16:05:38;4.83;;;1.70;;
11865;SDS011;5992;52.744;6.898;2023-04-24T16:08:51;4.93;;;1.90;;
11865;SDS011;5992;52.744;6.898;2023-04-24T16:12:04;5.53;;;1.90;;
11865;SDS011;5992;52.744;6.898;2023-04-24T16:15:17;6.00;;;1.60;;
11865;SDS011;5992;52.744;6.898;2023-04-24T16:18:41;7.63;;;1.87;;
11865;SDS011;5992;52.744;6.898;2023-04-24T16:21:43;8.20;;;2.40;;
11865;SDS011;5992;52.744;6.898;2023-04-24T16:25:08;5.50;;;1.80;;
11865;SDS011;5992;52.744;6.898;2023-04-24T16:28:20;6.43;;;2.20;;
11865;SDS011;5992;52.744;6.898;2023-04-24T16:31:45;8.03;;;2.37;;
11865;SDS011;5992;52.744;6.898;2023-04-24T16:34:46;6.95;;;1.85;;
11865;SDS011;5992;52.744;6.898;2023-04-24T16:38:12;5.55;;;1.85;;
11865;SDS011;5992;52.744;6.898;2023-04-24T16:41:25;7.75;;;1.25;;
11865;SDS011;5992;52.744;6.898;2023-04-24T16:44:38;3.70;;;1.40;;
11865;SDS011;5992;52.744;6.898;2023-04-24T16:47:50;4.60;;;1.50;;
11865;SDS011;5992;52.744;6.898;2023-04-24T16:51:03;6.33;;;1.43;;
11865;SDS011;5992;52.744;6.898;2023-04-24T16:54:17;2.70;;;1.30;;
11865;SDS011;5992;52.744;6.898;2023-04-24T16:57:54;4.95;;;1.60;;
11865;SDS011;5992;52.744;6.898;2023-04-24T17:00:55;3.10;;;1.30;;
11865;SDS011;5992;52.744;6.898;2023-04-24T17:04:19;3.37;;;1.73;;
11865;SDS011;5992;52.744;6.898;2023-04-24T17:07:20;2.95;;;1.40;;
11865;SDS011;5992;52.744;6.898;2023-04-24T17:10:35;3.50;;;1.65;;
11865;SDS011;5992;52.744;6.898;2023-04-24T17:13:47;2.05;;;1.25;;
11865;SDS011;5992;52.744;6.898;2023-04-24T17:17:00;5.27;;;1.93;;
11865;SDS011;5992;52.744;6.898;2023-04-24T17:20:12;1.40;;;1.30;;
11865;SDS011;5992;52.744;6.898;2023-04-24T17:23:25;2.40;;;1.20;;
11865;SDS011;5992;52.744;6.898;2023-04-24T17:26:28;3.87;;;1.37;;
11865;SDS011;5992;52.744;6.898;2023-04-24T17:29:52;4.13;;;1.30;;
11865;SDS011;5992;52.744;6.898;2023-04-24T17:33:04;3.93;;;1.60;;
11865;SDS011;5992;52.744;6.898;2023-04-24T17:36:18;5.97;;;1.60;;
11865;SDS011;5992;52.744;6.898;2023-04-24T17:39:19;2.50;;;1.35;;
11865;SDS011;5992;52.744;6.898;2023-04-24T17:42:33;2.25;;;1.45;;
11865;SDS011;5992;52.744;6.898;2023-04-24T17:45:46;5.85;;;1.70;;
11865;SDS011;5992;52.744;6.898;2023-04-24T17:49:09;3.70;;;1.60;;
11865;SDS011;5992;52.744;6.898;2023-04-24T17:52:10;3.23;;;1.27;;
11865;SDS011;5992;52.744;6.898;2023-04-24T17:55:35;6.07;;;1.97;;
11865;SDS011;5992;52.744;6.898;2023-04-24T17:58:49;4.00;;;1.60;;
11865;SDS011;5992;52.744;6.898;2023-04-24T18:02:14;7.00;;;1.60;;
11865;SDS011;5992;52.744;6.898;2023-04-24T18:05:28;1.30;;;1.20;;
11865;SDS011;5992;52.744;6.898;2023-04-24T18:08:40;3.85;;;1.60;;
11865;SDS011;5992;52.744;6.898;2023-04-24T18:11:53;4.20;;;1.60;;
11865;SDS011;5992;52.744;6.898;2023-04-24T18:15:08;4.10;;;1.57;;
11865;SDS011;5992;52.744;6.898;2023-04-24T18:18:32;2.60;;;1.90;;
11865;SDS011;5992;52.744;6.898;2023-04-24T18:21:33;3.47;;;1.80;;
11865;SDS011;5992;52.744;6.898;2023-04-24T18:24:58;3.83;;;2.00;;
11865;SDS011;5992;52.744;6.898;2023-04-24T18:28:09;4.80;;;1.57;;
11865;SDS011;5992;52.744;6.898;2023-04-24T18:31:24;5.23;;;1.50;;
11865;SDS011;5992;52.744;6.898;2023-04-24T18:34:37;2.73;;;1.20;;
11865;SDS011;5992;52.744;6.898;2023-04-24T18:37:50;3.17;;;1.60;;
11865;SDS011;5992;52.744;6.898;2023-04-24T18:41:03;4.80;;;1.60;;
11865;SDS011;5992;52.744;6.898;2023-04-24T18:44:26;5.67;;;1.80;;
11865;SDS011;5992;52.744;6.898;2023-04-24T18:47:28;1.63;;;1.30;;
11865;SDS011;5992;52.744;6.898;2023-04-24T18:50:53;4.10;;;1.67;;
11865;SDS011;5992;52.744;6.898;2023-04-24T18:54:05;3.53;;;1.33;;
11865;SDS011;5992;52.744;6.898;2023-04-24T18:57:29;4.45;;;1.95;;
11865;SDS011;5992;52.744;6.898;2023-04-24T19:00:41;2.40;;;2.00;;
11865;SDS011;5992;52.744;6.898;2023-04-24T19:03:55;2.50;;;1.10;;
11865;SDS011;5992;52.744;6.898;2023-04-24T19:07:08;3.93;;;1.40;;
11865;SDS011;5992;52.744;6.898;2023-04-24T19:10:22;1.67;;;1.20;;
11865;SDS011;5992;52.744;6.898;2023-04-24T19:13:23;2.47;;;1.27;;
11865;SDS011;5992;52.744;6.898;2023-04-24T19:16:36;3.00;;;1.65;;
11865;SDS011;5992;52.744;6.898;2023-04-24T19:19:49;3.33;;;1.27;;
11865;SDS011;5992;52.744;6.898;2023-04-24T19:23:15;3.00;;;1.50;;
11865;SDS011;5992;52.744;6.898;2023-04-24T19:26:27;1.73;;;1.40;;
11865;SDS011;5992;52.744;6.898;2023-04-24T19:29:51;5.55;;;1.85;;
11865;SDS011;5992;52.744;6.898;2023-04-24T19:32:52;1.37;;;1.00;;
11865;SDS011;5992;52.744;6.898;2023-04-24T19:36:06;4.57;;;1.70;;
11865;SDS011;5992;52.744;6.898;2023-04-24T19:39:19;1.67;;;1.40;;
11865;SDS011;5992;52.744;6.898;2023-04-24T19:42:43;5.75;;;1.60;;
11865;SDS011;5992;52.744;6.898;2023-04-24T19:45:44;3.10;;;1.70;;
11865;SDS011;5992;52.744;6.898;2023-04-24T19:49:09;3.80;;;1.67;;
11865;SDS011;5992;52.744;6.898;2023-04-24T19:52:22;1.63;;;1.20;;
11865;SDS011;5992;52.744;6.898;2023-04-24T19:55:48;1.30;;;1.20;;
11865;SDS011;5992;52.744;6.898;2023-04-24T19:58:49;5.93;;;1.63;;
11865;SDS011;5992;52.744;6.898;2023-04-24T20:02:06;7.65;;;1.80;;